createdAt,value
2017-09-03T00:00:56.599Z,1005.92
2017-09-03T00:01:56.620Z,1005.91
2017-09-03T00:02:56.640Z,1005.91
2017-09-03T00:03:56.664Z,1005.87
2017-09-03T00:04:56.680Z,1005.88
2017-09-03T00:05:56.700Z,1005.89
2017-09-03T00:06:56.721Z,1005.89
2017-09-03T00:07:56.743Z,1005.93
2017-09-03T00:08:56.767Z,1005.95
2017-09-03T00:09:56.782Z,1005.92
2017-09-03T00:10:56.806Z,1005.94
2017-09-03T00:11:56.824Z,1005.91
2017-09-03T00:12:56.845Z,1005.93
2017-09-03T00:13:56.865Z,1005.95
2017-09-03T00:14:56.888Z,1005.92
2017-09-03T00:15:56.935Z,1005.93
2017-09-03T00:16:56.927Z,1005.93
2017-09-03T00:17:56.949Z,1005.92
2017-09-03T00:18:56.968Z,1005.95
2017-09-03T00:19:56.992Z,1005.93
2017-09-03T00:20:57.009Z,1005.93
2017-09-03T00:21:57.030Z,1005.91
2017-09-03T00:22:57.051Z,1005.92
2017-09-03T00:23:57.070Z,1005.9
2017-09-03T00:24:57.090Z,1005.9
2017-09-03T00:25:57.110Z,1005.88
2017-09-03T00:26:57.130Z,1005.9
2017-09-03T00:27:57.150Z,1005.87
2017-09-03T00:28:57.171Z,1005.9
2017-09-03T00:29:57.192Z,1005.85
2017-09-03T00:30:57.210Z,1005.84
2017-09-03T00:31:57.232Z,1005.86
2017-09-03T00:32:57.251Z,1005.88
2017-09-03T00:33:57.273Z,1005.89
2017-09-03T00:34:57.291Z,1005.91
2017-09-03T00:35:57.313Z,1005.93
2017-09-03T00:36:57.333Z,1005.92
2017-09-03T00:37:57.352Z,1005.96
2017-09-03T00:38:57.372Z,1005.93
2017-09-03T00:39:57.393Z,1005.92
2017-09-03T00:40:57.412Z,1005.96
2017-09-03T00:41:57.432Z,1005.94
2017-09-03T00:42:57.454Z,1005.94
2017-09-03T00:43:57.473Z,1005.95
2017-09-03T00:44:57.492Z,1005.93
2017-09-03T00:45:57.512Z,1005.93
2017-09-03T00:46:57.533Z,1005.94
2017-09-03T00:47:57.554Z,1005.9
2017-09-03T00:48:57.575Z,1005.89
2017-09-03T00:49:57.596Z,1005.88
2017-09-03T00:50:57.613Z,1005.94
2017-09-03T00:51:57.633Z,1005.96
2017-09-03T00:52:57.657Z,1005.9
2017-09-03T00:53:57.673Z,1005.9
2017-09-03T00:54:57.694Z,1005.9
2017-09-03T00:55:57.714Z,1005.88
2017-09-03T00:56:57.732Z,1005.82
2017-09-03T00:57:57.753Z,1005.83
2017-09-03T00:58:57.775Z,1005.79
2017-09-03T00:59:57.793Z,1005.83
2017-09-03T01:00:57.813Z,1005.83
2017-09-03T01:01:57.833Z,1005.81
2017-09-03T01:02:57.920Z,1005.82
2017-09-03T01:03:57.875Z,1005.78
2017-09-03T01:04:57.893Z,1005.83
2017-09-03T01:05:57.914Z,1005.78
2017-09-03T01:06:57.933Z,1005.78
2017-09-03T01:07:57.954Z,1005.81
2017-09-03T01:08:57.973Z,1005.76
2017-09-03T01:09:57.993Z,1005.75
2017-09-03T01:10:58.013Z,1005.67
2017-09-03T01:11:58.033Z,1005.66
2017-09-03T01:12:58.053Z,1005.67
2017-09-03T01:13:58.073Z,1005.62
2017-09-03T01:14:58.093Z,1005.6
2017-09-03T01:15:58.117Z,1005.6
2017-09-03T01:16:58.133Z,1005.55
2017-09-03T01:17:58.153Z,1005.61
2017-09-03T01:18:58.172Z,1005.57
2017-09-03T01:19:58.192Z,1005.61
2017-09-03T01:20:58.214Z,1005.58
2017-09-03T01:21:58.234Z,1005.59
2017-09-03T01:22:58.253Z,1005.58
2017-09-03T01:23:58.312Z,1005.57
2017-09-03T01:24:58.293Z,1005.55
2017-09-03T01:25:58.312Z,1005.56
2017-09-03T01:26:58.333Z,1005.54
2017-09-03T01:27:58.352Z,1005.55
2017-09-03T01:28:58.372Z,1005.52
2017-09-03T01:29:58.392Z,1005.51
2017-09-03T01:30:58.412Z,1005.53
2017-09-03T01:31:58.431Z,1005.52
2017-09-03T01:32:58.451Z,1005.5
2017-09-03T01:33:58.472Z,1005.51
2017-09-03T01:34:58.492Z,1005.52
2017-09-03T01:35:58.510Z,1005.51
2017-09-03T01:36:58.531Z,1005.52
2017-09-03T01:37:58.552Z,1005.54
2017-09-03T01:38:58.571Z,1005.5
2017-09-03T01:39:58.590Z,1005.48
2017-09-03T01:40:58.610Z,1005.49
2017-09-03T01:41:58.630Z,1005.49
2017-09-03T01:42:58.649Z,1005.51
2017-09-03T01:43:58.669Z,1005.51
2017-09-03T01:44:58.689Z,1005.5
2017-09-03T01:45:58.711Z,1005.49
2017-09-03T01:46:58.728Z,1005.51
2017-09-03T01:47:58.748Z,1005.5
2017-09-03T01:48:58.767Z,1005.48
2017-09-03T01:49:58.789Z,1005.51
2017-09-03T01:50:58.807Z,1005.45
2017-09-03T01:51:58.828Z,1005.44
2017-09-03T01:52:58.847Z,1005.47
2017-09-03T01:53:58.867Z,1005.48
2017-09-03T01:54:58.886Z,1005.53
2017-09-03T01:55:58.906Z,1005.5
2017-09-03T01:56:58.926Z,1005.5
2017-09-03T01:57:58.944Z,1005.5
2017-09-03T01:58:58.966Z,1005.46
2017-09-03T01:59:58.984Z,1005.45
2017-09-03T02:00:59.006Z,1005.43
2017-09-03T02:01:59.024Z,1005.46
2017-09-03T02:02:59.043Z,1005.43
2017-09-03T02:03:59.063Z,1005.44
2017-09-03T02:04:59.082Z,1005.41
2017-09-03T02:05:59.107Z,1005.4
2017-09-03T02:06:59.121Z,1005.43
2017-09-03T02:07:59.141Z,1005.41
2017-09-03T02:08:59.162Z,1005.44
2017-09-03T02:09:59.182Z,1005.44
2017-09-03T02:10:59.200Z,1005.44
2017-09-03T02:11:59.220Z,1005.47
2017-09-03T02:12:59.239Z,1005.49
2017-09-03T02:13:59.259Z,1005.44
2017-09-03T02:14:59.279Z,1005.48
2017-09-03T02:15:59.298Z,1005.5
2017-09-03T02:16:59.317Z,1005.46
2017-09-03T02:17:59.337Z,1005.48
2017-09-03T02:18:59.360Z,1005.48
2017-09-03T02:19:59.377Z,1005.48
2017-09-03T02:20:59.397Z,1005.47
2017-09-03T02:21:59.417Z,1005.51
2017-09-03T02:22:59.437Z,1005.47
2017-09-03T02:23:59.454Z,1005.51
2017-09-03T02:24:59.474Z,1005.51
2017-09-03T02:25:59.494Z,1005.48
2017-09-03T02:26:59.512Z,1005.48
2017-09-03T02:27:59.532Z,1005.47
2017-09-03T02:28:59.552Z,1005.47
2017-09-03T02:29:59.577Z,1005.48
2017-09-03T02:30:59.590Z,1005.48
2017-09-03T02:31:59.610Z,1005.48
2017-09-03T02:32:59.630Z,1005.45
2017-09-03T02:33:59.651Z,1005.49
2017-09-03T02:34:59.678Z,1005.5
2017-09-03T02:35:59.688Z,1005.51
2017-09-03T02:36:59.709Z,1005.53
2017-09-03T02:37:59.726Z,1005.49
2017-09-03T02:38:59.747Z,1005.52
2017-09-03T02:39:59.767Z,1005.51
2017-09-03T02:40:59.786Z,1005.52
2017-09-03T02:41:59.806Z,1005.52
2017-09-03T02:42:59.824Z,1005.59
2017-09-03T02:43:59.847Z,1005.57
2017-09-03T02:44:59.864Z,1005.61
2017-09-03T02:45:59.883Z,1005.66
2017-09-03T02:46:59.903Z,1005.63
2017-09-03T02:47:59.921Z,1005.64
2017-09-03T02:48:59.941Z,1005.65
2017-09-03T02:49:59.960Z,1005.63
2017-09-03T02:50:59.980Z,1005.63
2017-09-03T02:52:00.001Z,1005.63
2017-09-03T02:53:00.019Z,1005.61
2017-09-03T02:54:00.038Z,1005.57
2017-09-03T02:55:00.155Z,1005.6
2017-09-03T02:56:00.183Z,1005.6
2017-09-03T02:57:00.192Z,1005.57
2017-09-03T02:58:00.208Z,1005.6
2017-09-03T02:59:00.238Z,1005.57
2017-09-03T03:00:00.187Z,1005.55
2017-09-03T03:01:00.215Z,1005.52
2017-09-03T03:02:00.226Z,1005.53
2017-09-03T03:03:00.232Z,1005.5
2017-09-03T03:04:00.301Z,1005.46
2017-09-03T03:05:00.321Z,1005.48
2017-09-03T03:06:00.360Z,1005.47
2017-09-03T03:07:00.318Z,1005.47
2017-09-03T03:08:00.399Z,1005.47
2017-09-03T03:09:00.330Z,1005.47
2017-09-03T03:10:00.437Z,1005.5
2017-09-03T03:11:00.446Z,1005.46
2017-09-03T03:12:00.466Z,1005.49
2017-09-03T03:13:00.491Z,1005.47
2017-09-03T03:14:00.509Z,1005.48
2017-09-03T03:15:00.471Z,1005.51
2017-09-03T03:16:00.508Z,1005.48
2017-09-03T03:17:00.515Z,1005.43
2017-09-03T03:18:00.503Z,1005.45
2017-09-03T03:19:00.523Z,1005.45
2017-09-03T03:20:00.543Z,1005.45
2017-09-03T03:21:00.562Z,1005.5
2017-09-03T03:22:00.588Z,1005.47
2017-09-03T03:23:00.647Z,1005.51
2017-09-03T03:24:00.619Z,1005.48
2017-09-03T03:25:00.639Z,1005.48
2017-09-03T03:26:00.657Z,1005.49
2017-09-03T03:27:00.677Z,1005.47
2017-09-03T03:28:00.702Z,1005.48
2017-09-03T03:29:00.716Z,1005.48
2017-09-03T03:30:00.740Z,1005.5
2017-09-03T03:31:00.754Z,1005.5
2017-09-03T03:32:00.773Z,1005.51
2017-09-03T03:33:00.792Z,1005.52
2017-09-03T03:34:00.816Z,1005.5
2017-09-03T03:35:00.832Z,1005.51
2017-09-03T03:36:00.852Z,1005.47
2017-09-03T03:37:00.870Z,1005.52
2017-09-03T03:38:00.891Z,1005.53
2017-09-03T03:39:00.909Z,1005.53
2017-09-03T03:40:00.926Z,1005.56
2017-09-03T03:41:00.947Z,1005.54
2017-09-03T03:42:00.976Z,1005.51
2017-09-03T03:43:00.986Z,1005.51
2017-09-03T03:44:01.003Z,1005.51
2017-09-03T03:45:01.022Z,1005.49
2017-09-03T03:46:01.046Z,1005.46
2017-09-03T03:47:01.062Z,1005.48
2017-09-03T03:48:01.080Z,1005.47
2017-09-03T03:49:01.100Z,1005.46
2017-09-03T03:50:01.126Z,1005.5
2017-09-03T03:51:01.141Z,1005.45
2017-09-03T03:52:01.166Z,1005.49
2017-09-03T03:53:01.178Z,1005.46
2017-09-03T03:54:01.196Z,1005.45
2017-09-03T03:55:01.215Z,1005.46
2017-09-03T03:56:01.240Z,1005.45
2017-09-03T03:57:01.253Z,1005.43
2017-09-03T03:58:01.277Z,1005.44
2017-09-03T03:59:01.294Z,1005.43
2017-09-03T04:00:01.312Z,1005.45
2017-09-03T04:01:01.332Z,1005.44
2017-09-03T04:02:01.349Z,1005.43
2017-09-03T04:03:01.369Z,1005.45
2017-09-03T04:04:01.390Z,1005.41
2017-09-03T04:05:01.407Z,1005.39
2017-09-03T04:06:01.427Z,1005.41
2017-09-03T04:07:01.444Z,1005.38
2017-09-03T04:08:01.465Z,1005.36
2017-09-03T04:09:01.484Z,1005.39
2017-09-03T04:10:01.502Z,1005.33
2017-09-03T04:11:01.522Z,1005.35
2017-09-03T04:12:01.550Z,1005.33
2017-09-03T04:13:01.562Z,1005.31
2017-09-03T04:14:01.581Z,1005.33
2017-09-03T04:15:01.598Z,1005.3
2017-09-03T04:16:01.619Z,1005.32
2017-09-03T04:17:01.643Z,1005.3
2017-09-03T04:18:01.657Z,1005.31
2017-09-03T04:19:01.675Z,1005.34
2017-09-03T04:20:01.695Z,1005.31
2017-09-03T04:21:01.914Z,1005.34
2017-09-03T04:22:01.731Z,1005.32
2017-09-03T04:23:01.752Z,1005.36
2017-09-03T04:24:01.769Z,1005.32
2017-09-03T04:25:01.792Z,1005.34
2017-09-03T04:26:01.809Z,1005.34
2017-09-03T04:27:01.828Z,1005.3
2017-09-03T04:28:01.850Z,1005.32
2017-09-03T04:29:01.866Z,1005.33
2017-09-03T04:30:01.887Z,1005.31
2017-09-03T04:31:01.905Z,1005.3
2017-09-03T04:32:01.924Z,1005.29
2017-09-03T04:33:01.944Z,1005.3
2017-09-03T04:34:01.976Z,1005.28
2017-09-03T04:35:01.982Z,1005.25
2017-09-03T04:36:02.000Z,1005.27
2017-09-03T04:37:02.021Z,1005.25
2017-09-03T04:38:02.038Z,1005.25
2017-09-03T04:39:02.057Z,1005.22
2017-09-03T04:40:02.077Z,1005.22
2017-09-03T04:41:02.094Z,1005.21
2017-09-03T04:42:02.116Z,1005.22
2017-09-03T04:43:02.132Z,1005.23
2017-09-03T04:44:02.168Z,1005.23
2017-09-03T04:45:02.172Z,1005.23
2017-09-03T04:46:02.239Z,1005.25
2017-09-03T04:47:02.209Z,1005.27
2017-09-03T04:48:02.228Z,1005.26
2017-09-03T04:49:02.248Z,1005.23
2017-09-03T04:50:02.266Z,1005.25
2017-09-03T04:51:02.286Z,1005.23
2017-09-03T04:52:02.304Z,1005.23
2017-09-03T04:53:02.322Z,1005.17
2017-09-03T04:54:02.341Z,1005.23
2017-09-03T04:55:02.362Z,1005.24
2017-09-03T04:56:02.380Z,1005.22
2017-09-03T04:57:02.398Z,1005.24
2017-09-03T04:58:02.419Z,1005.28
2017-09-03T04:59:02.438Z,1005.25
2017-09-03T05:00:02.456Z,1005.23
2017-09-03T05:01:02.474Z,1005.25
2017-09-03T05:02:02.497Z,1005.28
2017-09-03T05:03:02.513Z,1005.24
2017-09-03T05:04:02.532Z,1005.25
2017-09-03T05:05:02.550Z,1005.26
2017-09-03T05:06:02.570Z,1005.25
2017-09-03T05:07:02.590Z,1005.21
2017-09-03T05:08:02.605Z,1005.25
2017-09-03T05:09:02.626Z,1005.26
2017-09-03T05:10:02.645Z,1005.3
2017-09-03T05:11:02.666Z,1005.25
2017-09-03T05:12:02.686Z,1005.28
2017-09-03T05:13:02.701Z,1005.3
2017-09-03T05:14:02.720Z,1005.32
2017-09-03T05:15:02.743Z,1005.31
2017-09-03T05:16:02.757Z,1005.29
2017-09-03T05:17:02.780Z,1005.3
2017-09-03T05:18:02.796Z,1005.27
2017-09-03T05:19:02.816Z,1005.3
2017-09-03T05:20:02.833Z,1005.3
2017-09-03T05:21:02.853Z,1005.29
2017-09-03T05:22:02.875Z,1005.27
2017-09-03T05:23:02.890Z,1005.3
2017-09-03T05:24:02.909Z,1005.27
2017-09-03T05:25:02.928Z,1005.36
2017-09-03T05:26:02.949Z,1005.34
2017-09-03T05:27:02.966Z,1005.36
2017-09-03T05:28:02.985Z,1005.37
2017-09-03T05:29:03.004Z,1005.37
2017-09-03T05:30:03.023Z,1005.37
2017-09-03T05:31:03.041Z,1005.42
2017-09-03T05:32:03.060Z,1005.39
2017-09-03T05:33:03.078Z,1005.42
2017-09-03T05:34:03.099Z,1005.42
2017-09-03T05:35:03.117Z,1005.43
2017-09-03T05:36:03.135Z,1005.43
2017-09-03T05:37:03.154Z,1005.44
2017-09-03T05:38:03.173Z,1005.45
2017-09-03T05:39:03.192Z,1005.47
2017-09-03T05:40:03.212Z,1005.46
2017-09-03T05:41:03.230Z,1005.48
2017-09-03T05:42:03.287Z,1005.47
2017-09-03T05:43:03.269Z,1005.48
2017-09-03T05:44:03.489Z,1005.46
2017-09-03T05:45:03.305Z,1005.49
2017-09-03T05:46:03.323Z,1005.48
2017-09-03T05:47:03.344Z,1005.47
2017-09-03T05:48:03.362Z,1005.46
2017-09-03T05:49:03.381Z,1005.44
2017-09-03T05:50:03.400Z,1005.44
2017-09-03T05:51:03.469Z,1005.46
2017-09-03T05:52:03.438Z,1005.45
2017-09-03T05:53:03.455Z,1005.48
2017-09-03T05:54:03.475Z,1005.49
2017-09-03T05:55:03.493Z,1005.49
2017-09-03T05:56:03.512Z,1005.47
2017-09-03T05:57:03.530Z,1005.48
2017-09-03T05:58:03.550Z,1005.49
2017-09-03T05:59:03.568Z,1005.47
2017-09-03T06:00:03.587Z,1005.47
2017-09-03T06:01:03.606Z,1005.45
2017-09-03T06:02:03.626Z,1005.44
2017-09-03T06:03:03.643Z,1005.44
2017-09-03T06:04:03.662Z,1005.41
2017-09-03T06:05:03.682Z,1005.44
2017-09-03T06:06:03.701Z,1005.42
2017-09-03T06:07:03.719Z,1005.45
2017-09-03T06:08:03.740Z,1005.41
2017-09-03T06:09:03.758Z,1005.44
2017-09-03T06:10:03.776Z,1005.39
2017-09-03T06:11:03.794Z,1005.41
2017-09-03T06:12:03.814Z,1005.39
2017-09-03T06:13:03.833Z,1005.42
2017-09-03T06:14:03.851Z,1005.4
2017-09-03T06:15:03.870Z,1005.43
2017-09-03T06:16:03.891Z,1005.42
2017-09-03T06:17:03.908Z,1005.45
2017-09-03T06:18:03.927Z,1005.42
2017-09-03T06:19:03.946Z,1005.46
2017-09-03T06:20:03.964Z,1005.47
2017-09-03T06:21:03.982Z,1005.49
2017-09-03T06:22:04.001Z,1005.46
2017-09-03T06:23:04.022Z,1005.48
2017-09-03T06:24:04.040Z,1005.45
2017-09-03T06:25:04.058Z,1005.45
2017-09-03T06:26:04.077Z,1005.46
2017-09-03T06:27:04.099Z,1005.46
2017-09-03T06:28:04.116Z,1005.45
2017-09-03T06:29:04.140Z,1005.45
2017-09-03T06:30:04.152Z,1005.46
2017-09-03T06:31:04.171Z,1005.49
2017-09-03T06:32:04.190Z,1005.45
2017-09-03T06:33:04.209Z,1005.45
2017-09-03T06:34:04.229Z,1005.46
2017-09-03T06:35:04.247Z,1005.45
2017-09-03T06:36:04.265Z,1005.49
2017-09-03T06:37:04.284Z,1005.47
2017-09-03T06:38:04.304Z,1005.5
2017-09-03T06:39:04.322Z,1005.5
2017-09-03T06:40:04.340Z,1005.5
2017-09-03T06:41:04.360Z,1005.51
2017-09-03T06:42:04.380Z,1005.53
2017-09-03T06:43:04.397Z,1005.52
2017-09-03T06:44:04.416Z,1005.52
2017-09-03T06:45:04.436Z,1005.55
2017-09-03T06:46:04.454Z,1005.52
2017-09-03T06:47:04.474Z,1005.53
2017-09-03T06:48:04.491Z,1005.57
2017-09-03T06:49:04.530Z,1005.55
2017-09-03T06:50:04.547Z,1005.55
2017-09-03T06:51:04.548Z,1005.54
2017-09-03T06:52:04.568Z,1005.53
2017-09-03T06:53:04.586Z,1005.52
2017-09-03T06:54:04.605Z,1005.52
2017-09-03T06:55:04.626Z,1005.59
2017-09-03T06:56:04.644Z,1005.55
2017-09-03T06:57:04.662Z,1005.57
2017-09-03T06:58:04.681Z,1005.58
2017-09-03T06:59:04.701Z,1005.59
2017-09-03T07:00:04.720Z,1005.62
2017-09-03T07:01:04.737Z,1005.65
2017-09-03T07:02:04.756Z,1005.62
2017-09-03T07:03:04.775Z,1005.69
2017-09-03T07:04:04.795Z,1005.64
2017-09-03T07:05:04.813Z,1005.63
2017-09-03T07:06:04.832Z,1005.66
2017-09-03T07:07:04.852Z,1005.62
2017-09-03T07:08:04.871Z,1005.61
2017-09-03T07:09:04.890Z,1005.65
2017-09-03T07:10:04.909Z,1005.64
2017-09-03T07:11:04.929Z,1005.63
2017-09-03T07:12:04.946Z,1005.59
2017-09-03T07:13:04.966Z,1005.66
2017-09-03T07:14:04.985Z,1005.66
2017-09-03T07:15:05.004Z,1005.61
2017-09-03T07:16:05.023Z,1005.63
2017-09-03T07:17:05.044Z,1005.66
2017-09-03T07:18:05.063Z,1005.62
2017-09-03T07:19:05.081Z,1005.63
2017-09-03T07:20:05.099Z,1005.66
2017-09-03T07:21:05.120Z,1005.67
2017-09-03T07:22:05.139Z,1005.65
2017-09-03T07:23:05.158Z,1005.67
2017-09-03T07:24:05.176Z,1005.65
2017-09-03T07:25:05.196Z,1005.66
2017-09-03T07:26:05.217Z,1005.66
2017-09-03T07:27:05.233Z,1005.68
2017-09-03T07:28:05.253Z,1005.69
2017-09-03T07:29:05.274Z,1005.72
2017-09-03T07:30:05.293Z,1005.7
2017-09-03T07:31:05.314Z,1005.73
2017-09-03T07:32:05.331Z,1005.74
2017-09-03T07:33:05.352Z,1005.8
2017-09-03T07:34:05.371Z,1005.76
2017-09-03T07:35:05.388Z,1005.77
2017-09-03T07:36:05.409Z,1005.79
2017-09-03T07:37:05.428Z,1005.75
2017-09-03T07:38:05.449Z,1005.75
2017-09-03T07:39:05.466Z,1005.76
2017-09-03T07:40:05.489Z,1005.77
2017-09-03T07:41:05.505Z,1005.78
2017-09-03T07:42:05.525Z,1005.78
2017-09-03T07:43:05.546Z,1005.78
2017-09-03T07:44:05.564Z,1005.76
2017-09-03T07:45:05.583Z,1005.75
2017-09-03T07:46:05.603Z,1005.78
2017-09-03T07:47:05.627Z,1005.77
2017-09-03T07:48:05.642Z,1005.77
2017-09-03T07:49:05.661Z,1005.76
2017-09-03T07:50:05.682Z,1005.8
2017-09-03T07:51:05.700Z,1005.82
2017-09-03T07:52:05.719Z,1005.77
2017-09-03T07:53:05.739Z,1005.8
2017-09-03T07:54:05.759Z,1005.81
2017-09-03T07:55:05.780Z,1005.8
2017-09-03T07:56:05.798Z,1005.85
2017-09-03T07:57:05.819Z,1005.85
2017-09-03T07:58:05.839Z,1005.81
2017-09-03T07:59:05.859Z,1005.82
2017-09-03T08:00:05.876Z,1005.79
2017-09-03T08:01:05.896Z,1005.8
2017-09-03T08:02:05.916Z,1005.8
2017-09-03T08:03:05.935Z,1005.8
2017-09-03T08:04:05.956Z,1005.81
2017-09-03T08:05:05.976Z,1005.82
2017-09-03T08:06:05.998Z,1005.82
2017-09-03T08:07:06.014Z,1005.77
2017-09-03T08:08:06.036Z,1005.8
2017-09-03T08:09:06.054Z,1005.8
2017-09-03T08:10:06.074Z,1005.81
2017-09-03T08:11:06.094Z,1005.82
2017-09-03T08:12:06.115Z,1005.86
2017-09-03T08:13:06.136Z,1005.84
2017-09-03T08:14:06.155Z,1005.86
2017-09-03T08:15:06.173Z,1005.84
2017-09-03T08:16:06.194Z,1005.86
2017-09-03T08:17:06.213Z,1005.82
2017-09-03T08:18:06.232Z,1005.84
2017-09-03T08:19:06.253Z,1005.86
2017-09-03T08:20:06.273Z,1005.81
2017-09-03T08:21:06.293Z,1005.77
2017-09-03T08:22:06.313Z,1005.79
2017-09-03T08:23:06.333Z,1005.77
2017-09-03T08:24:06.353Z,1005.81
2017-09-03T08:25:06.373Z,1005.8
2017-09-03T08:26:06.393Z,1005.82
2017-09-03T08:27:06.415Z,1005.77
2017-09-03T08:28:06.436Z,1005.77
2017-09-03T08:29:06.452Z,1005.8
2017-09-03T08:30:06.474Z,1005.78
2017-09-03T08:31:06.494Z,1005.78
2017-09-03T08:32:06.515Z,1005.79
2017-09-03T08:33:06.540Z,1005.74
2017-09-03T08:34:06.555Z,1005.74
2017-09-03T08:35:06.576Z,1005.74
2017-09-03T08:36:06.595Z,1005.73
2017-09-03T08:37:06.616Z,1005.77
2017-09-03T08:38:06.638Z,1005.75
2017-09-03T08:39:06.657Z,1005.72
2017-09-03T08:40:06.677Z,1005.78
2017-09-03T08:41:06.698Z,1005.73
2017-09-03T08:42:06.718Z,1005.74
2017-09-03T08:43:06.739Z,1005.72
2017-09-03T08:44:06.758Z,1005.75
2017-09-03T08:45:06.781Z,1005.74
2017-09-03T08:46:06.800Z,1005.73
2017-09-03T08:47:06.822Z,1005.73
2017-09-03T08:48:06.841Z,1005.73
2017-09-03T08:49:06.862Z,1005.77
2017-09-03T08:50:06.885Z,1005.75
2017-09-03T08:51:06.903Z,1005.7
2017-09-03T08:52:06.923Z,1005.68
2017-09-03T08:53:06.944Z,1005.62
2017-09-03T08:54:06.965Z,1005.64
2017-09-03T08:55:06.985Z,1005.61
2017-09-03T08:56:07.007Z,1005.55
2017-09-03T08:57:07.027Z,1005.59
2017-09-03T08:58:07.055Z,1005.56
2017-09-03T08:59:07.069Z,1005.56
2017-09-03T09:00:07.089Z,1005.53
2017-09-03T09:01:07.111Z,1005.53
2017-09-03T09:02:07.131Z,1005.53
2017-09-03T09:03:07.152Z,1005.53
2017-09-03T09:04:07.174Z,1005.54
2017-09-03T09:05:07.195Z,1005.53
2017-09-03T09:06:07.215Z,1005.54
2017-09-03T09:07:07.235Z,1005.54
2017-09-03T09:08:07.258Z,1005.54
2017-09-03T09:09:07.276Z,1005.56
2017-09-03T09:10:07.298Z,1005.59
2017-09-03T09:11:07.320Z,1005.58
2017-09-03T09:12:07.341Z,1005.51
2017-09-03T09:13:07.363Z,1005.52
2017-09-03T09:14:07.382Z,1005.53
2017-09-03T09:15:07.405Z,1005.55
2017-09-03T09:16:07.426Z,1005.51
2017-09-03T09:17:07.449Z,1005.55
2017-09-03T09:18:07.468Z,1005.55
2017-09-03T09:19:07.489Z,1005.54
2017-09-03T09:20:07.510Z,1005.5
2017-09-03T09:21:07.531Z,1005.47
2017-09-03T09:22:07.555Z,1005.51
2017-09-03T09:23:07.574Z,1005.5
2017-09-03T09:24:07.595Z,1005.46
2017-09-03T09:25:07.617Z,1005.52
2017-09-03T09:26:07.638Z,1005.49
2017-09-03T09:27:07.661Z,1005.5
2017-09-03T09:28:07.682Z,1005.49
2017-09-03T09:29:07.703Z,1005.49
2017-09-03T09:30:07.724Z,1005.5
2017-09-03T09:31:07.745Z,1005.47
2017-09-03T09:32:07.766Z,1005.5
2017-09-03T09:33:07.790Z,1005.49
2017-09-03T09:34:07.811Z,1005.47
2017-09-03T09:35:07.830Z,1005.47
2017-09-03T09:36:07.853Z,1005.44
2017-09-03T09:37:07.880Z,1005.42
2017-09-03T09:38:07.896Z,1005.4
2017-09-03T09:39:07.918Z,1005.43
2017-09-03T09:40:07.940Z,1005.38
2017-09-03T09:41:07.964Z,1005.38
2017-09-03T09:42:07.984Z,1005.38
2017-09-03T09:43:08.007Z,1005.36
2017-09-03T09:44:08.028Z,1005.36
2017-09-03T09:45:08.049Z,1005.35
2017-09-03T09:46:08.072Z,1005.33
2017-09-03T09:47:08.094Z,1005.33
2017-09-03T09:48:08.118Z,1005.37
2017-09-03T09:49:08.136Z,1005.38
2017-09-03T09:50:08.158Z,1005.34
2017-09-03T09:51:08.180Z,1005.36
2017-09-03T09:52:08.205Z,1005.32
2017-09-03T09:53:08.224Z,1005.33
2017-09-03T09:54:08.246Z,1005.33
2017-09-03T09:55:08.269Z,1005.29
2017-09-03T09:56:08.294Z,1005.3
2017-09-03T09:57:08.315Z,1005.28
2017-09-03T09:58:08.338Z,1005.28
2017-09-03T09:59:08.359Z,1005.27
2017-09-03T10:00:08.380Z,1005.3
2017-09-03T10:01:08.404Z,1005.3
2017-09-03T10:02:08.426Z,1005.28
2017-09-03T10:03:08.449Z,1005.29
2017-09-03T10:04:08.471Z,1005.29
2017-09-03T10:05:08.492Z,1005.27
2017-09-03T10:06:08.515Z,1005.29
2017-09-03T10:07:08.538Z,1005.28
2017-09-03T10:08:08.560Z,1005.26
2017-09-03T10:09:08.582Z,1005.25
2017-09-03T10:10:08.604Z,1005.28
2017-09-03T10:11:08.626Z,1005.25
2017-09-03T10:12:08.650Z,1005.25
2017-09-03T10:13:08.673Z,1005.24
2017-09-03T10:14:08.696Z,1005.27
2017-09-03T10:15:08.717Z,1005.24
2017-09-03T10:16:08.739Z,1005.24
2017-09-03T10:17:08.766Z,1005.22
2017-09-03T10:18:08.787Z,1005.19
2017-09-03T10:19:08.808Z,1005.19
2017-09-03T10:20:08.832Z,1005.22
2017-09-03T10:21:08.854Z,1005.19
2017-09-03T10:22:08.876Z,1005.16
2017-09-03T10:23:08.900Z,1005.15
2017-09-03T10:24:08.923Z,1005.18
2017-09-03T10:25:08.945Z,1005.13
2017-09-03T10:26:08.969Z,1005.13
2017-09-03T10:27:08.991Z,1005.13
2017-09-03T10:28:09.014Z,1005.11
2017-09-03T10:29:09.038Z,1005.17
2017-09-03T10:30:09.067Z,1005.17
2017-09-03T10:31:09.084Z,1005.16
2017-09-03T10:32:09.106Z,1005.13
2017-09-03T10:33:09.130Z,1005.1
2017-09-03T10:34:09.152Z,1005.08
2017-09-03T10:35:09.177Z,1005.08
2017-09-03T10:36:09.199Z,1005.08
2017-09-03T10:37:09.224Z,1005.01
2017-09-03T10:38:09.247Z,1005.04
2017-09-03T10:39:09.273Z,1005
2017-09-03T10:40:09.295Z,1005.06
2017-09-03T10:41:09.315Z,1005.03
2017-09-03T10:42:09.339Z,1005.07
2017-09-03T10:43:09.364Z,1005.1
2017-09-03T10:44:09.385Z,1005.07
2017-09-03T10:45:09.434Z,1005.03
2017-09-03T10:46:09.435Z,1005.06
2017-09-03T10:47:09.457Z,1005.07
2017-09-03T10:48:09.481Z,1005.01
2017-09-03T10:49:09.505Z,1005.01
2017-09-03T10:50:09.528Z,1004.99
2017-09-03T10:51:09.551Z,1004.92
2017-09-03T10:52:09.576Z,1004.92
2017-09-03T10:53:09.601Z,1004.9
2017-09-03T10:54:09.625Z,1004.87
2017-09-03T10:55:09.648Z,1004.85
2017-09-03T10:56:09.671Z,1004.85
2017-09-03T10:57:09.695Z,1004.76
2017-09-03T10:58:09.722Z,1004.82
2017-09-03T10:59:09.742Z,1004.79
2017-09-03T11:00:09.766Z,1004.79
2017-09-03T11:01:09.793Z,1004.75
2017-09-03T11:02:09.814Z,1004.73
2017-09-03T11:03:10.041Z,1004.77
2017-09-03T11:04:09.863Z,1004.72
2017-09-03T11:05:09.887Z,1004.71
2017-09-03T11:06:09.911Z,1004.74
2017-09-03T11:07:09.936Z,1004.7
2017-09-03T11:08:09.960Z,1004.71
2017-09-03T11:09:09.985Z,1004.7
2017-09-03T11:10:10.009Z,1004.66
2017-09-03T11:11:10.036Z,1004.68
2017-09-03T11:12:10.059Z,1004.64
2017-09-03T11:13:10.083Z,1004.63
2017-09-03T11:14:10.107Z,1004.65
2017-09-03T11:15:10.130Z,1004.64
2017-09-03T11:16:10.159Z,1004.66
2017-09-03T11:17:10.179Z,1004.62
2017-09-03T11:18:10.206Z,1004.65
2017-09-03T11:19:10.236Z,1004.62
2017-09-03T11:20:10.255Z,1004.64
2017-09-03T11:21:10.278Z,1004.64
2017-09-03T11:22:10.303Z,1004.67
2017-09-03T11:23:10.329Z,1004.63
2017-09-03T11:24:10.351Z,1004.64
2017-09-03T11:25:10.377Z,1004.62
2017-09-03T11:26:10.402Z,1004.63
2017-09-03T11:27:10.534Z,1004.59
2017-09-03T11:28:10.552Z,1004.57
2017-09-03T11:29:10.572Z,1004.61
2017-09-03T11:30:10.590Z,1004.54
2017-09-03T11:31:10.638Z,1004.55
2017-09-03T11:32:10.557Z,1004.59
2017-09-03T11:33:10.687Z,1004.51
2017-09-03T11:34:10.602Z,1004.49
2017-09-03T11:35:10.739Z,1004.47
2017-09-03T11:36:10.752Z,1004.46
2017-09-03T11:37:10.763Z,1004.49
2017-09-03T11:38:10.780Z,1004.45
2017-09-03T11:39:10.811Z,1004.53
2017-09-03T11:40:10.830Z,1004.5
2017-09-03T11:41:10.837Z,1004.52
2017-09-03T11:42:10.885Z,1004.49
2017-09-03T11:43:10.909Z,1004.49
2017-09-03T11:44:10.914Z,1004.51
2017-09-03T11:45:10.923Z,1004.49
2017-09-03T11:46:10.902Z,1004.46
2017-09-03T11:47:10.928Z,1004.41
2017-09-03T11:48:10.954Z,1004.48
2017-09-03T11:49:10.981Z,1004.5
2017-09-03T11:50:11.005Z,1004.47
2017-09-03T11:51:11.116Z,1004.46
2017-09-03T11:52:11.055Z,1004.49
2017-09-03T11:53:11.082Z,1004.45
2017-09-03T11:54:11.107Z,1004.42
2017-09-03T11:55:11.132Z,1004.4
2017-09-03T11:56:11.158Z,1004.39
2017-09-03T11:57:11.182Z,1004.39
2017-09-03T11:58:11.210Z,1004.43
2017-09-03T11:59:11.235Z,1004.41
2017-09-03T12:00:11.260Z,1004.41
2017-09-03T12:01:11.285Z,1004.4
2017-09-03T12:02:11.313Z,1004.4
2017-09-03T12:03:11.337Z,1004.43
2017-09-03T12:04:11.386Z,1004.38
2017-09-03T12:05:11.388Z,1004.39
2017-09-03T12:06:11.416Z,1004.29
2017-09-03T12:07:11.440Z,1004.35
2017-09-03T12:08:11.466Z,1004.32
2017-09-03T12:09:11.492Z,1004.28